Time;durP1;ratioP1;P1;durP2;ratioP2;P2;SDS_P1;SDS_P2;PMS_P1;PMS_P2;Temp;Humidity;BMP_temperature;BMP_pressure;BME280_temperature;BME280_humidity;BME280_pressure;Samples;Min_cycle;Max_cycle;Signal;HPM_P1;HPM_P2
2020/12/22 00:01:21;;;;;;;29.93;12.93;;;;;;;-2.47;85.17;101580.66;1682310;83;21137;-80
2020/12/22 00:03:49;;;;;;;32.93;16.80;;;;;;;-2.49;84.92;101580.94;1653255;86;21206;-81
2020/12/22 00:06:25;;;;;;;31.07;12.97;;;;;;;-2.47;85.11;101584.45;1685571;84;21107;-81
2020/12/22 00:08:54;;;;;;;24.17;14.23;;;;;;;-2.47;84.04;101582.31;1674381;85;21157;-82
2020/12/22 00:11:22;;;;;;;33.57;16.33;;;;;;;-2.49;84.15;101587.66;1681751;84;21134;-81
2020/12/22 00:13:50;;;;;;;33.47;15.70;;;;;;;-2.53;84.58;101585.73;1642034;86;21177;-80
2020/12/22 00:16:19;;;;;;;27.20;14.60;;;;;;;-2.48;84.55;101586.52;1673170;85;21155;-81
2020/12/22 00:18:49;;;;;;;29.43;15.03;;;;;;;-2.44;84.47;101591.38;1715118;83;21115;-81
2020/12/22 00:21:21;;;;;;;28.50;14.67;;;;;;;-2.44;84.14;101583.77;1668584;84;21181;-82
2020/12/22 00:23:49;;;;;;;31.70;14.57;;;;;;;-2.47;84.00;101585.72;1684273;83;21145;-82
2020/12/22 00:26:18;;;;;;;31.60;15.13;;;;;;;-2.49;83.90;101578.80;1659994;86;21185;-82
2020/12/22 00:28:46;;;;;;;34.10;17.33;;;;;;;-2.52;84.02;101578.20;1687008;83;21716;-81
2020/12/22 00:31:14;;;;;;;36.37;17.57;;;;;;;-2.49;84.23;101579.67;1686360;83;21367;-80
2020/12/22 00:33:43;;;;;;;26.20;14.07;;;;;;;-2.42;84.52;101575.86;1679337;85;21235;-82
2020/12/22 00:36:11;;;;;;;26.00;13.10;;;;;;;-2.32;83.78;101572.23;1694534;83;21159;-82
2020/12/22 00:38:41;;;;;;;27.23;14.17;;;;;;;-2.28;83.47;101571.66;1688528;83;21139;-82
2020/12/22 00:41:14;;;;;;;23.23;12.87;;;;;;;-2.33;83.30;101571.36;1669225;85;21158;-81
2020/12/22 00:43:43;;;;;;;27.17;17.13;;;;;;;-2.39;83.30;101574.42;1648638;86;21138;-81
2020/12/22 00:46:17;;;;;;;35.97;18.43;;;;;;;-2.42;83.68;101572.05;1686560;84;21158;-83
2020/12/22 00:48:48;;;;;;;30.23;16.27;;;;;;;-2.39;84.02;101564.64;1651059;86;21181;-79
2020/12/22 00:51:22;;;;;;;31.20;18.13;;;;;;;-2.29;84.35;101564.82;1675558;83;21263;-82
2020/12/22 00:53:52;;;;;;;24.47;13.87;;;;;;;-2.25;83.33;101560.45;1661239;85;21275;-81
2020/12/22 00:56:21;;;;;;;29.77;17.23;;;;;;;-2.33;82.85;101558.69;1683940;83;21150;-81
2020/12/22 00:58:51;;;;;;;26.83;14.20;;;;;;;-2.38;83.28;101560.08;1660770;85;21183;-81
2020/12/22 01:01:19;;;;;;;28.37;14.30;;;;;;;-2.44;83.56;101563.50;1671474;83;21138;-82
2020/12/22 01:03:48;;;;;;;24.53;14.30;;;;;;;-2.52;83.71;101563.00;1696338;83;21144;-83
2020/12/22 01:06:17;;;;;;;25.90;16.23;;;;;;;-2.54;83.85;101562.05;1676904;83;21182;-83
2020/12/22 01:08:45;;;;;;;34.30;19.73;;;;;;;-2.57;84.22;101564.39;1714187;81;21257;-82
2020/12/22 01:11:13;;;;;;;34.00;20.40;;;;;;;-2.60;84.50;101556.20;1713240;83;21130;-82
2020/12/22 01:13:43;;;;;;;34.70;19.47;;;;;;;-2.61;84.33;101558.27;1708740;83;21190;-82
2020/12/22 01:16:12;;;;;;;41.80;20.07;;;;;;;-2.59;84.61;101550.74;1687834;83;21143;-82
2020/12/22 01:18:43;;;;;;;42.10;21.00;;;;;;;-2.55;84.69;101561.58;1691783;83;21142;-83
2020/12/22 01:21:20;;;;;;;32.57;16.10;;;;;;;-2.52;84.74;101558.33;1672204;85;21144;-82
2020/12/22 01:23:48;;;;;;;49.60;22.60;;;;;;;-2.52;84.28;101562.13;1701647;83;21273;-83
2020/12/22 01:26:24;;;;;;;33.93;19.00;;;;;;;-2.55;84.46;101558.14;1685336;83;21115;-83
2020/12/22 01:28:53;;;;;;;31.33;17.03;;;;;;;-2.52;84.21;101561.73;1718842;82;21107;-84
2020/12/22 01:31:26;;;;;;;40.03;22.60;;;;;;;-2.50;83.72;101555.13;1700639;83;21112;-83
2020/12/22 01:33:54;;;;;;;33.77;19.00;;;;;;;-2.54;83.61;101556.12;1708325;82;21250;-83
2020/12/22 01:36:25;;;;;;;45.95;21.20;;;;;;;-2.58;83.64;101553.78;1684941;84;21220;-83
2020/12/22 01:38:54;;;;;;;36.50;20.77;;;;;;;-2.59;83.93;101549.48;1725169;83;21146;-84
2020/12/22 01:41:22;;;;;;;30.77;18.17;;;;;;;-2.62;83.76;101558.15;1698135;83;21121;-82
2020/12/22 01:44:08;;;;;;;38.60;22.47;;;;;;;-2.70;83.97;101556.81;1691435;83;21122;-81
2020/12/22 01:46:42;;;;;;;41.03;18.33;;;;;;;-2.77;84.14;101541.63;1696743;83;21137;-81
2020/12/22 01:49:25;;;;;;;33.47;18.87;;;;;;;-2.76;84.46;101543.76;1713354;81;21106;-83
2020/12/22 01:51:57;;;;;;;35.50;18.53;;;;;;;-2.73;84.57;101544.82;1687209;83;21104;-82
2020/12/22 01:54:26;;;;;;;37.85;20.40;;;;;;;-2.68;84.89;101541.30;1713394;81;21171;-82
2020/12/22 01:56:55;;;;;;;38.70;21.63;;;;;;;-2.63;84.94;101540.81;1663993;84;21119;-82
2020/12/22 01:59:24;;;;;;;32.97;18.83;;;;;;;-2.59;84.86;101541.48;1680672;84;21183;-82
2020/12/22 02:01:53;;;;;;;43.27;21.90;;;;;;;-2.57;84.34;101537.80;1718067;81;21111;-82
2020/12/22 02:04:21;;;;;;;21.83;14.13;;;;;;;-2.52;84.85;101531.33;1717680;83;21267;-83
2020/12/22 02:06:56;;;;;;;24.80;15.50;;;;;;;-2.46;84.09;101524.51;1702293;83;21484;-81
2020/12/22 02:09:26;;;;;;;27.00;16.83;;;;;;;-2.45;84.15;101528.42;1720317;83;21158;-83
2020/12/22 02:11:55;;;;;;;24.30;14.53;;;;;;;-2.49;84.17;101525.19;1729106;82;21146;-83
2020/12/22 02:14:23;;;;;;;20.43;13.77;;;;;;;-2.51;84.50;101522.97;1721031;82;21147;-83
2020/12/22 02:16:51;;;;;;;22.63;14.10;;;;;;;-2.53;84.45;101518.19;1689070;83;21150;-83
2020/12/22 02:19:22;;;;;;;;;;;;;;;-2.56;84.47;101512.06;1696894;84;21147;-83
2020/12/22 02:21:50;;;;;;;27.20;16.30;;;;;;;-2.63;84.72;101513.34;1684999;84;20143;-83
2020/12/22 02:24:20;;;;;;;26.27;15.80;;;;;;;-2.76;85.19;101515.50;1694893;85;21145;-83
2020/12/22 02:26:48;;;;;;;33.87;18.17;;;;;;;-2.80;85.61;101517.37;1694780;82;21134;-81
2020/12/22 02:29:16;;;;;;;27.73;16.60;;;;;;;-2.77;85.65;101521.36;1694412;84;21229;-82
2020/12/22 02:31:45;;;;;;;30.53;18.37;;;;;;;-2.70;85.80;101520.08;1676148;83;21166;-82
2020/12/22 02:34:13;;;;;;;32.07;18.83;;;;;;;-2.61;85.79;101525.73;1668167;85;21167;-81
2020/12/22 02:36:41;;;;;;;33.07;15.90;;;;;;;-2.59;85.29;101519.08;1697580;81;21131;-83
2020/12/22 02:39:09;;;;;;;43.40;17.47;;;;;;;-2.63;85.34;101524.34;1673630;84;21194;-82
2020/12/22 02:41:37;;;;;;;27.77;15.33;;;;;;;-2.63;85.67;101530.68;1694734;84;21329;-82
2020/12/22 02:44:05;;;;;;;30.03;15.10;;;;;;;-2.60;85.60;101522.00;1689225;84;21249;-80
2020/12/22 02:46:33;;;;;;;43.87;20.27;;;;;;;-2.59;85.74;101529.21;1692338;84;21138;-81
2020/12/22 02:49:01;;;;;;;39.27;17.20;;;;;;;-2.61;85.67;101523.19;1690141;84;21162;-81
2020/12/22 02:51:32;;;;;;;30.67;14.77;;;;;;;-2.61;85.52;101531.66;1691248;84;21150;-82
2020/12/22 02:54:00;;;;;;;22.90;9.70;;;;;;;-2.66;85.29;101532.15;1694654;85;21194;-81
2020/12/22 02:56:30;;;;;;;38.23;17.40;;;;;;;-2.76;85.06;101534.50;1676866;83;21138;-82
2020/12/22 02:58:59;;;;;;;26.17;13.18;;;;;;;-2.83;85.38;101532.37;1695792;84;21158;-83
2020/12/22 03:01:27;;;;;;;30.27;14.23;;;;;;;-2.89;85.67;101533.24;1689555;82;21189;-82
2020/12/22 03:03:55;;;;;;;22.33;13.47;;;;;;;-2.94;85.96;101535.89;1695865;83;21126;-83
2020/12/22 03:06:24;;;;;;;28.77;14.23;;;;;;;-2.96;86.28;101534.91;1695899;85;21149;-81
2020/12/22 03:08:52;;;;;;;22.57;13.20;;;;;;;-3.01;86.44;101532.45;1669450;85;21134;-81
2020/12/22 03:11:21;;;;;;;35.23;12.20;;;;;;;-3.06;86.84;101530.52;1692003;84;21142;-81
2020/12/22 03:13:48;;;;;;;24.30;14.33;;;;;;;-3.13;87.11;101531.30;1679258;85;21141;-81
2020/12/22 03:16:19;;;;;;;22.20;12.97;;;;;;;-3.19;87.73;101519.13;1695251;83;21318;-82
2020/12/22 03:18:47;;;;;;;21.77;15.03;;;;;;;-3.20;87.90;101512.72;1695568;83;21165;-81
2020/12/22 03:21:16;;;;;;;26.00;14.83;;;;;;;-3.20;88.45;101514.85;1695437;84;21252;-80
2020/12/22 03:23:44;;;;;;;27.43;14.73;;;;;;;-3.16;88.09;101511.73;1669276;85;21257;-82
2020/12/22 03:26:12;;;;;;;29.83;16.30;;;;;;;-3.14;88.39;101508.92;1695497;83;21142;-82
2020/12/22 03:28:39;;;;;;;26.27;15.63;;;;;;;-3.10;88.00;101511.25;1690457;84;21175;-78
2020/12/22 03:31:07;;;;;;;27.80;16.43;;;;;;;-3.11;88.60;101505.32;1694442;83;21308;-81
2020/12/22 03:33:35;;;;;;;34.17;17.47;;;;;;;-3.07;88.25;101502.20;1695709;85;21079;-82
2020/12/22 03:36:04;;;;;;;26.53;14.47;;;;;;;-3.05;88.07;101506.08;1695764;83;21084;-83
2020/12/22 03:38:32;;;;;;;26.60;16.20;;;;;;;-3.05;88.19;101512.41;1695786;83;21138;-83
2020/12/22 03:41:00;;;;;;;22.73;14.70;;;;;;;-3.07;88.46;101508.91;1670782;83;21086;-83
2020/12/22 03:43:28;;;;;;;27.00;17.17;;;;;;;-3.04;88.75;101514.54;1696103;81;21132;-83
2020/12/22 03:45:57;;;;;;;33.43;16.67;;;;;;;-3.00;88.89;101519.05;1695904;83;21114;-84
2020/12/22 03:48:26;;;;;;;23.30;13.57;;;;;;;-2.99;87.86;101509.00;1696071;85;21252;-83
2020/12/22 03:50:57;;;;;;;31.53;19.10;;;;;;;-2.96;87.97;101512.98;1670885;85;21292;-84
2020/12/22 03:53:25;;;;;;;30.10;17.87;;;;;;;-2.96;87.88;101506.66;1696081;85;21171;-81
2020/12/22 03:55:53;;;;;;;35.40;20.23;;;;;;;-2.96;88.10;101505.79;1689693;83;21126;-82
2020/12/22 03:58:23;;;;;;;31.30;19.43;;;;;;;-2.97;88.14;101506.19;1681527;84;21113;-82
2020/12/22 04:00:51;;;;;;;33.47;19.30;;;;;;;-2.95;88.08;101492.34;1693199;84;21188;-82
2020/12/22 04:03:19;;;;;;;33.97;15.37;;;;;;;-2.96;87.99;101496.53;1684745;84;21256;-82
2020/12/22 04:05:48;;;;;;;34.77;19.77;;;;;;;-2.96;88.16;101500.72;1693390;83;21129;-83
2020/12/22 04:08:18;;;;;;;40.00;19.50;;;;;;;-3.01;88.50;101497.02;1666697;85;21178;-84
2020/12/22 04:10:46;;;;;;;43.23;19.30;;;;;;;-3.07;89.01;101500.93;1687259;82;21170;-83
2020/12/22 04:13:15;;;;;;;41.00;20.57;;;;;;;-3.05;89.08;101492.15;1694546;84;21141;-83
2020/12/22 04:15:44;;;;;;;50.60;23.67;;;;;;;-3.04;89.29;101493.02;1694409;84;21142;-82
2020/12/22 04:18:12;;;;;;;38.27;23.80;;;;;;;-3.00;89.43;101490.80;1694368;83;21127;-83
2020/12/22 04:20:41;;;;;;;39.20;19.80;;;;;;;-2.95;89.40;101494.87;1675682;84;21252;-81
2020/12/22 04:23:09;;;;;;;35.20;18.87;;;;;;;-2.94;89.33;101488.66;1694519;84;21154;-80
2020/12/22 04:25:38;;;;;;;31.23;18.70;;;;;;;-2.92;89.37;101489.61;1698037;83;21261;-81
2020/12/22 04:28:07;;;;;;;26.30;15.47;;;;;;;-2.93;89.67;101495.45;1694693;83;21380;-81
2020/12/22 04:30:34;;;;;;;30.33;17.83;;;;;;;-2.91;89.65;101492.64;1676412;84;21399;-82
2020/12/22 04:33:02;;;;;;;29.60;15.43;;;;;;;-2.90;89.60;101499.45;1692895;84;21288;-79
2020/12/22 04:35:30;;;;;;;31.40;18.47;;;;;;;-2.89;89.71;101501.20;1694974;84;21126;-82
2020/12/22 04:38:01;;;;;;;28.40;18.87;;;;;;;-2.91;89.67;101496.80;1693312;84;21177;-82
2020/12/22 04:40:29;;;;;;;;;;;;;;;-2.93;89.69;101489.52;1695845;84;21170;-81
2020/12/22 04:42:59;;;;;;;21.40;12.47;;;;;;;-2.94;89.93;101491.19;1694020;83;20160;-83
2020/12/22 04:45:30;;;;;;;24.37;14.13;;;;;;;-2.90;90.17;101493.12;1698685;83;21136;-81
2020/12/22 04:48:00;;;;;;;32.48;15.65;;;;;;;-2.85;89.66;101496.80;1698809;84;21126;-83
2020/12/22 04:50:29;;;;;;;24.17;15.17;;;;;;;-2.88;89.80;101483.08;1665526;85;21207;-83
2020/12/22 04:52:59;;;;;;;31.00;17.73;;;;;;;-2.86;89.91;101484.93;1680184;84;21285;-82
2020/12/22 04:55:28;;;;;;;27.53;15.80;;;;;;;-2.86;89.93;101481.53;1668138;84;21149;-81
2020/12/22 04:57:56;;;;;;;29.30;16.60;;;;;;;-2.87;89.84;101470.52;1712697;82;21272;-82
2020/12/22 05:00:25;;;;;;;21.70;14.23;;;;;;;-2.86;89.98;101474.80;1656347;84;21269;-82
2020/12/22 05:02:53;;;;;;;23.00;14.17;;;;;;;-2.82;89.82;101472.06;1680670;84;21146;-82
2020/12/22 05:05:21;;;;;;;24.97;14.80;;;;;;;-2.84;89.89;101478.31;1699530;84;21173;-82
2020/12/22 05:07:50;;;;;;;24.43;12.57;;;;;;;-2.84;89.94;101473.64;1699259;83;21144;-81
2020/12/22 05:10:19;;;;;;;22.57;13.53;;;;;;;-2.85;90.43;101475.27;1699574;84;21138;-82
2020/12/22 05:12:48;;;;;;;21.60;14.13;;;;;;;-2.81;90.08;101466.23;1692469;83;21203;-82
2020/12/22 05:15:17;;;;;;;24.12;13.25;;;;;;;-2.76;90.12;101466.11;1691076;84;21286;-82
2020/12/22 05:17:46;;;;;;;21.30;12.23;;;;;;;-2.72;89.99;101463.38;1704106;84;21252;-82
2020/12/22 05:20:17;;;;;;;16.47;10.13;;;;;;;-2.69;89.72;101462.30;1678443;84;21330;-82
2020/12/22 05:22:47;;;;;;;18.23;12.60;;;;;;;-2.67;89.37;101460.75;1685970;85;21165;-82
2020/12/22 05:25:17;;;;;;;15.60;9.18;;;;;;;-2.66;89.36;101459.56;1693269;84;21309;-82
2020/12/22 05:27:49;;;;;;;17.60;10.87;;;;;;;-2.69;89.01;101461.03;1702526;83;21167;-83
2020/12/22 05:30:20;;;;;;;13.43;8.23;;;;;;;-2.77;89.48;101458.44;1722269;83;21183;-83
2020/12/22 05:32:51;;;;;;;17.33;10.13;;;;;;;-2.75;89.66;101469.52;1704998;82;21158;-82
2020/12/22 05:35:23;;;;;;;18.37;11.87;;;;;;;-2.74;89.80;101468.76;1697755;84;21110;-84
2020/12/22 05:37:53;;;;;;;17.83;10.20;;;;;;;-2.72;89.79;101472.24;1695553;83;21240;-83
2020/12/22 05:40:26;;;;;;;23.90;11.63;;;;;;;-2.68;89.83;101477.61;1730643;82;21241;-83
2020/12/22 05:42:59;;;;;;;13.63;8.57;;;;;;;-2.65;89.73;101475.62;1657143;83;21183;-83
2020/12/22 05:45:34;;;;;;;17.77;10.10;;;;;;;-2.67;89.73;101473.02;1710377;81;21294;-83
2020/12/22 05:48:30;;;;;;;12.50;7.77;;;;;;;-2.65;89.84;101471.83;1687551;82;21153;-84
2020/12/22 05:51:21;;;;;;;13.13;9.23;;;;;;;-2.67;89.65;101467.95;1698249;79;21732;-83
2020/12/22 05:54:05;;;;;;;12.80;8.00;;;;;;;-2.70;90.04;101471.95;1714437;82;21262;-82
2020/12/22 05:57:55;;;;;;;13.37;9.00;;;;;;;-2.67;90.39;101475.95;1697413;82;21151;-81
2020/12/22 06:00:31;;;;;;;15.50;9.03;;;;;;;-2.70;90.26;101471.95;1675689;79;21152;-81
2020/12/22 06:03:12;;;;;;;10.47;7.13;;;;;;;-2.73;90.82;101464.17;1701805;82;21156;-82
2020/12/22 06:05:44;;;;;;;14.40;8.50;;;;;;;-2.69;91.11;101466.09;1712654;79;21144;-80
2020/12/22 06:08:31;;;;;;;;;;;;;;;-2.70;91.04;101469.03;1697010;82;21188;-82
2020/12/22 06:11:03;;;;;;;13.90;8.53;;;;;;;-2.77;91.92;101467.30;1665590;82;20115;-80
2020/12/22 06:13:31;;;;;;;13.67;8.37;;;;;;;-2.82;92.23;101464.47;1648150;85;21176;-80
2020/12/22 06:16:16;;;;;;;13.50;8.37;;;;;;;-2.83;92.43;101471.19;1658566;80;21312;-78
2020/12/22 06:18:46;;;;;;;11.47;7.47;;;;;;;-2.81;92.14;101463.70;1637709;86;21150;-79
2020/12/22 06:24:01;;;;;;;11.73;8.27;;;;;;;-2.78;92.50;101466.80;1703136;83;21189;-81
2020/12/22 06:26:30;;;;;;;10.63;7.00;;;;;;;-2.77;92.65;101466.91;1697973;83;21314;-80
2020/12/22 06:28:58;;;;;;;12.10;7.77;;;;;;;-2.78;92.96;101473.13;1689933;84;21181;-80
2020/12/22 06:31:31;;;;;;;10.90;7.20;;;;;;;-2.79;92.87;101456.19;1682716;84;21146;-81
2020/12/22 06:33:59;;;;;;;11.40;7.33;;;;;;;-2.77;93.07;101451.70;1708383;81;21110;-80
2020/12/22 06:36:28;;;;;;;11.40;7.73;;;;;;;-2.71;93.25;101452.48;1711190;83;21153;-81
2020/12/22 06:38:59;;;;;;;10.23;7.00;;;;;;;-2.68;93.09;101444.68;1716177;82;21117;-81
2020/12/22 06:41:41;;;;;;;11.27;7.77;;;;;;;-2.62;93.14;101450.48;1708018;84;21117;-80
2020/12/22 06:44:29;;;;;;;8.67;6.33;;;;;;;-2.60;93.25;101450.20;1690822;83;21102;-81
2020/12/22 06:46:59;;;;;;;14.20;8.63;;;;;;;-2.58;93.60;101446.11;1697408;83;21162;-81
2020/12/22 06:49:53;;;;;;;11.40;6.70;;;;;;;-2.53;93.56;101440.91;1680102;84;21146;-82
2020/12/22 06:52:36;;;;;;;14.30;7.00;;;;;;;-2.44;93.59;101448.20;1701072;82;21312;-81
2020/12/22 06:55:07;;;;;;;11.63;8.00;;;;;;;-2.41;92.60;101442.05;1717522;83;21169;-82
2020/12/22 06:57:46;;;;;;;12.13;7.45;;;;;;;-2.43;92.72;101437.28;1711775;82;21267;-82
2020/12/22 07:00:30;;;;;;;15.17;9.03;;;;;;;-2.43;92.46;101434.34;1677911;84;21114;-83
2020/12/22 07:03:17;;;;;;;9.70;6.27;;;;;;;-2.43;92.82;101425.88;1705593;84;21094;-82
2020/12/22 07:05:47;;;;;;;11.07;7.67;;;;;;;-2.33;92.75;101426.89;1703718;83;21244;-82
2020/12/22 07:08:17;;;;;;;14.13;8.50;;;;;;;-2.28;92.18;101434.39;1662925;84;21083;-82
2020/12/22 07:10:49;;;;;;;11.17;7.60;;;;;;;-2.29;91.51;101431.75;1679206;84;21192;-82
2020/12/22 07:13:19;;;;;;;11.43;7.43;;;;;;;-2.33;91.28;101428.16;1715461;83;21582;-82
2020/12/22 07:15:49;;;;;;;7.97;5.45;;;;;;;-2.34;91.64;101432.77;1707525;83;21113;-81
2020/12/22 07:18:32;;;;;;;12.30;7.57;;;;;;;-2.38;91.50;101420.70;1714472;81;21133;-81
2020/12/22 07:21:00;;;;;;;17.10;8.17;;;;;;;-2.41;91.79;101420.12;1708890;82;21118;-81
2020/12/22 07:23:28;;;;;;;12.20;9.13;;;;;;;-2.42;92.09;101412.41;1721024;82;21139;-81
2020/12/22 07:25:56;;;;;;;15.90;7.33;;;;;;;-2.33;92.26;101412.95;1721474;82;21142;-82
2020/12/22 07:28:24;;;;;;;10.37;6.70;;;;;;;-2.21;92.37;101411.55;1721434;82;21526;-81
2020/12/22 07:30:52;;;;;;;11.73;8.30;;;;;;;-2.08;92.11;101407.67;1713961;82;21236;-82
2020/12/22 07:33:20;;;;;;;11.33;7.93;;;;;;;-2.00;91.24;101401.77;1729671;82;21191;-81
2020/12/22 07:35:49;;;;;;;15.70;8.80;;;;;;;-2.01;91.07;101405.09;1728531;82;21114;-81
2020/12/22 07:38:22;;;;;;;18.93;9.63;;;;;;;-1.96;91.34;101398.24;1684451;84;21131;-85
2020/12/22 07:44:21;;;;;;;13.87;9.17;;;;;;;-1.92;91.00;101394.22;1784773;78;21147;-82
2020/12/22 07:46:57;;;;;;;16.97;10.67;;;;;;;-1.86;90.24;101397.11;1772038;80;21121;-82
2020/12/22 07:49:47;;;;;;;11.77;7.40;;;;;;;-1.82;90.57;101393.08;1773666;76;21145;-81
2020/12/22 07:52:21;;;;;;;11.23;7.27;;;;;;;-1.73;90.26;101397.41;1754980;80;21171;-81
2020/12/22 07:54:58;;;;;;;13.57;9.43;;;;;;;-1.72;89.71;101392.81;1787148;79;21163;-82
2020/12/22 07:57:27;;;;;;;16.33;10.00;;;;;;;-1.76;89.78;101390.50;1778395;79;21157;-82
2020/12/22 08:00:07;;;;;;;13.13;8.27;;;;;;;-1.70;90.50;101388.31;1796396;80;21101;-81
2020/12/22 08:02:39;;;;;;;13.27;9.63;;;;;;;-1.55;90.17;101389.54;1784374;79;21082;-82
2020/12/22 08:05:11;;;;;;;;;;;;;;;-1.46;89.42;101393.86;1774692;80;21210;-82
2020/12/22 08:07:42;;;;;;;15.17;9.90;;;;;;;-1.43;89.19;101390.63;1767436;79;20214;-79
2020/12/22 08:10:12;;;;;;;14.87;9.93;;;;;;;-1.40;89.24;101395.00;1790136;79;21138;-79
2020/12/22 08:12:46;;;;;;;14.60;10.05;;;;;;;-1.37;89.12;101390.97;1790428;79;21115;-79
2020/12/22 08:15:15;;;;;;;12.87;9.13;;;;;;;-1.28;89.07;101393.11;1785640;79;21279;-78
2020/12/22 08:17:52;;;;;;;14.33;10.50;;;;;;;-1.28;88.31;101391.44;1764787;79;21261;-78
2020/12/22 08:20:54;;;;;;;9.77;6.67;;;;;;;-1.27;88.45;101390.67;1753905;79;21123;-82
2020/12/22 08:23:25;;;;;;;12.67;8.13;;;;;;;-1.22;88.03;101381.63;1771497;80;21121;-82
2020/12/22 08:26:06;;;;;;;11.87;8.27;;;;;;;-1.18;88.03;101376.31;1758341;81;21072;-83
2020/12/22 08:29:03;;;;;;;12.50;8.23;;;;;;;-1.17;87.87;101374.28;1745544;82;21156;-83
2020/12/22 08:58:06;;;;;;;15.07;9.03;;;;;;;-1.19;88.14;101341.56;1690760;79;21372;-83
2020/12/22 09:10:11;;;;;;;18.73;11.97;;;;;;;-1.24;89.85;101325.23;1727745;79;21454;-81
2020/12/22 09:19:29;;;;;;;18.70;12.55;;;;;;;-1.46;91.89;101319.39;1748505;78;21347;-83
2020/12/22 09:22:45;;;;;;;17.67;11.10;;;;;;;-1.38;91.74;101313.45;1708373;78;21185;-82
2020/12/22 09:25:15;;;;;;;16.57;10.60;;;;;;;-1.28;91.51;101313.14;1665613;85;21127;-82
2020/12/22 09:28:01;;;;;;;19.57;12.00;;;;;;;-1.27;91.22;101305.63;1695523;84;21135;-83
2020/12/22 09:31:24;;;;;;;19.33;11.93;;;;;;;-1.27;91.05;101311.97;1697446;82;21098;-82
2020/12/22 09:33:59;;;;;;;20.47;12.97;;;;;;;-1.29;91.26;101308.47;1698227;82;21263;-81
2020/12/22 09:37:01;;;;;;;25.83;16.20;;;;;;;-1.25;91.13;101305.30;1778382;78;21094;-81
2020/12/22 09:40:11;;;;;;;23.73;13.67;;;;;;;-1.21;90.68;101303.78;1773358;78;21092;-81
2020/12/22 09:43:07;;;;;;;35.97;18.93;;;;;;;-1.15;90.87;101300.70;1718442;81;21134;-81
2020/12/22 09:45:59;;;;;;;23.93;14.67;;;;;;;-1.11;90.28;101289.54;1799711;78;21165;-81
2020/12/22 09:48:49;;;;;;;20.47;12.50;;;;;;;-1.11;89.87;101292.08;1806965;78;21054;-81
2020/12/22 09:51:39;;;;;;;24.70;14.98;;;;;;;-1.17;90.09;101296.83;1763717;78;21058;-82
2020/12/22 09:54:11;;;;;;;30.87;17.83;;;;;;;-1.14;90.24;101289.38;1795562;80;21067;-81
2020/12/22 09:56:43;;;;;;;30.80;17.90;;;;;;;-1.07;90.29;101292.70;1785039;77;21105;-80
2020/12/22 09:59:54;;;;;;;31.68;21.33;;;;;;;-1.04;89.50;101282.70;1795777;76;21124;-79
2020/12/22 10:02:23;;;;;;;38.00;21.43;;;;;;;-1.06;88.98;101283.41;1786738;78;21097;-81
2020/12/22 10:05:04;;;;;;;32.20;18.83;;;;;;;-1.05;88.83;101269.91;1820055;78;21113;-81
2020/12/22 10:08:15;;;;;;;40.77;24.93;;;;;;;-1.04;88.49;101266.60;1795914;78;21129;-81
2020/12/22 10:10:50;;;;;;;40.37;23.40;;;;;;;-0.99;88.93;101265.16;1815533;78;21129;-82
2020/12/22 10:13:20;;;;;;;44.80;25.80;;;;;;;-0.87;88.61;101256.03;1756872;78;21131;-82
2020/12/22 10:15:50;;;;;;;40.30;23.30;;;;;;;-0.84;88.00;101253.65;1775653;78;21225;-77
2020/12/22 10:18:48;;;;;;;41.63;22.40;;;;;;;-0.80;87.68;101253.00;1794346;77;21106;-82
2020/12/22 10:21:43;;;;;;;37.03;22.30;;;;;;;-0.85;86.88;101251.51;1770577;78;21102;-80
2020/12/22 10:24:29;;;;;;;36.93;20.30;;;;;;;-0.89;87.11;101248.31;1782935;80;21118;-80
2020/12/22 10:30:12;;;;;;;33.85;21.93;;;;;;;-0.82;86.71;101245.31;1834900;74;21260;-83
2020/12/22 10:33:08;;;;;;;55.17;25.67;;;;;;;-0.79;86.82;101242.90;1832039;78;21094;-83
2020/12/22 10:39:39;;;;;;;;;;;;;;;;;;;;;
2020/12/22 10:42:45;;;;;;;48.43;27.40;;;;;;;-0.90;86.46;101222.45;1812825;76;21134;-83
2020/12/22 10:49:03;;;;;;;40.60;21.43;;;;;;;-0.76;86.63;101212.56;1821094;76;21116;-82
2020/12/22 10:52:13;;;;;;;41.83;25.17;;;;;;;-0.49;85.56;101207.98;1787724;77;21266;31
2020/12/22 10:54:59;;;;;;;34.30;19.87;;;;;;;-0.49;85.56;101207.98;1773508;80;21758;-83
2020/12/22 10:58:12;;;;;;;39.85;22.87;;;;;;;-0.43;83.89;101205.25;1754928;81;21145;-83
2020/12/22 11:00:49;;;;;;;40.07;20.80;;;;;;;-0.44;84.51;101208.19;1754738;81;21137;-80
2020/12/22 11:06:45;;;;;;;38.67;19.37;;;;;;;-0.44;84.58;101200.97;1766894;78;21147;-81
2020/12/22 11:09:25;;;;;;;41.20;18.37;;;;;;;-0.44;83.86;101196.75;1760911;80;21122;-81
2020/12/22 11:11:58;;;;;;;35.47;18.33;;;;;;;-0.53;83.61;101202.25;1773445;80;21131;-83
2020/12/22 11:14:27;;;;;;;32.30;18.75;;;;;;;-0.61;83.88;101198.89;1758291;80;21156;-82
2020/12/22 11:16:58;;;;;;;38.93;20.00;;;;;;;-0.73;84.30;101189.85;1698252;81;21133;-81
2020/12/22 11:19:29;;;;;;;38.88;21.42;;;;;;;-0.74;84.77;101203.36;1663599;84;21193;-83
2020/12/22 11:22:02;;;;;;;39.90;22.10;;;;;;;-0.72;85.12;101191.98;1688854;80;21488;-82
2020/12/22 11:24:40;;;;;;;45.33;21.17;;;;;;;-0.66;85.36;101187.61;1734387;80;21130;-83
2020/12/22 11:27:50;;;;;;;38.67;21.97;;;;;;;-0.62;85.35;101190.77;1723382;82;21217;-81
2020/12/22 11:30:31;;;;;;;38.43;21.17;;;;;;;-0.69;85.31;101188.33;1749588;81;21253;-81
2020/12/22 11:33:04;;;;;;;38.43;20.47;;;;;;;-0.76;85.57;101183.34;1746616;82;21285;-82
2020/12/22 11:35:38;;;;;;;48.83;27.13;;;;;;;-0.74;85.76;101184.30;1734285;81;21176;-81
2020/12/22 11:38:13;;;;;;;39.48;22.10;;;;;;;-0.73;85.87;101186.03;1750184;81;21162;-83
2020/12/22 11:41:08;;;;;;;53.87;27.13;;;;;;;-0.67;85.91;101182.06;1737863;80;21145;-82
2020/12/22 11:43:41;;;;;;;43.17;23.37;;;;;;;-0.63;86.00;101175.92;1749651;81;21146;-83
2020/12/22 11:46:46;;;;;;;46.17;25.83;;;;;;;-0.64;85.44;101178.00;1729746;78;21154;31
2020/12/22 11:52:52;;;;;;;50.90;26.60;;;;;;;-0.73;85.48;101166.98;1777775;77;21079;-83
2020/12/22 11:55:28;;;;;;;52.17;26.57;;;;;;;-0.62;85.36;101167.52;1779560;78;21890;-84
2020/12/22 11:57:57;;;;;;;45.17;24.13;;;;;;;-0.61;84.92;101156.95;1780695;78;21113;-83
2020/12/22 12:00:30;;;;;;;46.67;23.67;;;;;;;-0.61;84.90;101162.91;1780561;81;21133;-81
2020/12/22 12:02:59;;;;;;;48.50;24.57;;;;;;;-0.59;85.03;101154.97;1780146;78;21116;-82
2020/12/22 12:05:48;;;;;;;52.30;24.33;;;;;;;-0.61;84.82;101153.14;1780416;78;21105;-83
2020/12/22 12:08:17;;;;;;;46.90;25.60;;;;;;;-0.63;84.93;101149.24;1776919;81;21124;-80
2020/12/22 12:10:45;;;;;;;38.50;21.33;;;;;;;-0.58;85.18;101148.20;1774759;79;21168;-79
2020/12/22 12:13:14;;;;;;;48.70;25.50;;;;;;;-0.56;84.33;101148.73;1764392;81;21148;-82
2020/12/22 12:15:44;;;;;;;38.42;22.48;;;;;;;-0.58;84.67;101146.53;1771111;81;21152;-79
2020/12/22 12:18:15;;;;;;;44.00;24.77;;;;;;;-0.56;84.91;101151.27;1779648;79;21129;-80
2020/12/22 12:20:43;;;;;;;42.70;21.93;;;;;;;-0.53;85.06;101149.28;1777918;81;21077;-80
2020/12/22 12:23:11;;;;;;;38.40;19.77;;;;;;;-0.46;84.65;101139.88;1732477;83;21154;-81
2020/12/22 12:25:43;;;;;;;34.60;20.47;;;;;;;-0.42;84.40;101133.30;1777705;78;21165;-79
2020/12/22 12:28:11;;;;;;;27.83;16.27;;;;;;;-0.44;84.00;101137.02;1757642;81;21148;-79
2020/12/22 12:30:39;;;;;;;24.77;15.47;;;;;;;-0.51;84.28;101129.91;1763111;81;21124;-79
2020/12/22 12:33:09;;;;;;;25.07;14.90;;;;;;;-0.60;84.76;101134.14;1768134;80;21132;-79
2020/12/22 12:35:37;;;;;;;24.50;15.70;;;;;;;-0.65;85.11;101136.02;1776563;81;21520;-79
2020/12/22 12:38:06;;;;;;;22.23;13.13;;;;;;;-0.72;85.36;101134.81;1768489;79;21117;-77
2020/12/22 12:40:36;;;;;;;29.87;12.40;;;;;;;-0.76;85.66;101121.09;1761720;81;21180;-81
2020/12/22 12:43:05;;;;;;;24.50;14.57;;;;;;;-0.80;86.03;101120.48;1733485;80;21311;-84
2020/12/22 12:45:36;;;;;;;26.90;15.17;;;;;;;-0.84;86.17;101122.81;1754312;79;21104;-82
2020/12/22 12:48:10;;;;;;;24.07;14.55;;;;;;;-0.84;86.38;101122.81;1717576;79;21134;-82
2020/12/22 12:50:48;;;;;;;18.80;11.77;;;;;;;-0.86;86.16;101118.91;1778606;76;21077;-81
2020/12/22 12:53:31;;;;;;;23.70;12.78;;;;;;;-0.87;86.52;101108.70;1761524;78;21061;-84